createdAt,value
2023-02-24T00:02:01.213Z,7.13
2023-02-24T00:06:57.421Z,8.60
2023-02-24T00:09:27.250Z,7.15
2023-02-24T00:11:57.118Z,7.88
2023-02-24T00:14:27.226Z,8.35
2023-02-24T00:16:54.603Z,7.55
2023-02-24T00:19:24.720Z,10.10
2023-02-24T00:21:54.215Z,8.00
2023-02-24T00:24:22.584Z,8.07
2023-02-24T00:26:59.479Z,8.52
2023-02-24T00:32:01.429Z,8.32
2023-02-24T00:34:35.440Z,7.78
2023-02-24T00:37:03.168Z,8.38
2023-02-24T00:39:30.522Z,10.30
2023-02-24T00:42:04.500Z,8.75
2023-02-24T00:44:41.505Z,8.38
2023-02-24T00:49:42.291Z,8.60
2023-02-24T00:52:20.644Z,7.70
2023-02-24T00:54:49.319Z,6.90
2023-02-24T00:57:21.348Z,7.15
2023-02-24T00:59:51.786Z,6.78
2023-02-24T01:02:20.298Z,6.82
2023-02-24T01:04:47.343Z,6.80
2023-02-24T01:07:14.884Z,7.80
2023-02-24T01:09:43.885Z,7.43
2023-02-24T01:12:31.473Z,8.10
2023-02-24T01:14:58.562Z,7.40
2023-02-24T01:17:25.628Z,8.85
2023-02-24T01:19:52.834Z,7.05
2023-02-24T01:22:21.508Z,6.30
2023-02-24T01:24:49.060Z,7.13
2023-02-24T01:27:19.513Z,7.57
2023-02-24T01:29:49.826Z,7.28
2023-02-24T01:32:21.860Z,8.48
2023-02-24T01:34:52.425Z,6.40
2023-02-24T01:37:20.585Z,7.63
2023-02-24T01:39:48.314Z,7.38
2023-02-24T01:42:20.005Z,7.30
2023-02-24T01:44:47.619Z,7.65
2023-02-24T01:47:20.934Z,7.80
2023-02-24T01:49:54.171Z,6.68
2023-02-24T01:52:26.173Z,7.03
2023-02-24T01:55:22.767Z,6.03
2023-02-24T01:57:52.611Z,7.95
2023-02-24T02:00:31.493Z,7.00
2023-02-24T02:03:04.092Z,6.32
2023-02-24T02:05:31.320Z,6.40
2023-02-24T02:07:58.417Z,7.07
2023-02-24T02:10:26.572Z,6.20
2023-02-24T02:12:53.581Z,6.40
2023-02-24T02:15:20.793Z,6.43
2023-02-24T02:18:11.003Z,6.20
2023-02-24T02:21:15.253Z,7.78
2023-02-24T02:24:22.103Z,5.72
2023-02-24T02:27:19.848Z,6.47
2023-02-24T02:30:17.344Z,7.18
2023-02-24T02:33:21.404Z,7.53
2023-02-24T02:36:00.517Z,6.97
2023-02-24T02:38:57.533Z,6.05
2023-02-24T02:41:31.305Z,7.22
2023-02-24T02:44:11.948Z,7.22
2023-02-24T02:46:51.182Z,6.43
2023-02-24T02:49:42.332Z,7.20
2023-02-24T02:52:21.272Z,7.45
2023-02-24T02:55:04.998Z,5.90
2023-02-24T02:57:33.885Z,6.72
2023-02-24T03:00:21.312Z,6.53
2023-02-24T03:02:55.254Z,6.45
2023-02-24T03:05:30.725Z,7.30
2023-02-24T03:08:00.901Z,7.13
2023-02-24T03:10:34.225Z,7.05
2023-02-24T03:13:03.990Z,6.75
2023-02-24T03:15:33.550Z,6.03
2023-02-24T03:18:12.210Z,7.72
2023-02-24T03:20:48.341Z,7.30
2023-02-24T03:23:19.733Z,6.95
2023-02-24T03:26:06.121Z,6.70
2023-02-24T03:28:37.787Z,7.07
2023-02-24T03:31:11.181Z,7.45
2023-02-24T03:33:46.838Z,8.15
2023-02-24T03:36:15.071Z,7.43
2023-02-24T03:38:43.871Z,7.47
2023-02-24T03:41:13.406Z,7.95
2023-02-24T03:43:45.417Z,8.05
2023-02-24T03:46:15.223Z,7.65
2023-02-24T03:48:52.702Z,7.25
2023-02-24T03:51:23.415Z,6.70
2023-02-24T03:54:16.163Z,7.00
2023-02-24T03:57:12.488Z,7.50
2023-02-24T04:00:22.030Z,7.30
2023-02-24T04:03:25.623Z,6.88
2023-02-24T04:06:29.594Z,7.78
2023-02-24T04:09:43.659Z,8.77
2023-02-24T04:12:29.489Z,7.78
2023-02-24T04:15:15.995Z,7.65
2023-02-24T04:17:53.605Z,7.07
2023-02-24T04:20:27.882Z,6.90
2023-02-24T04:23:10.616Z,9.13
2023-02-24T04:25:39.766Z,7.22
2023-02-24T04:28:10.661Z,6.80
2023-02-24T04:30:43.876Z,6.75
2023-02-24T04:33:12.354Z,8.02
2023-02-24T04:35:40.616Z,8.38
2023-02-24T04:38:07.908Z,7.53
2023-02-24T04:40:36.613Z,10.05
2023-02-24T04:43:03.798Z,7.25
2023-02-24T04:45:32.400Z,7.28
2023-02-24T04:48:02.056Z,7.00
2023-02-24T04:50:36.665Z,7.78
2023-02-24T04:53:09.512Z,7.68
2023-02-24T04:55:41.465Z,6.72
2023-02-24T04:58:19.261Z,6.28
2023-02-24T05:00:57.897Z,6.32
2023-02-24T05:03:28.504Z,6.80
2023-02-24T05:06:00.142Z,6.25
2023-02-24T05:08:30.203Z,7.45
2023-02-24T05:10:58.534Z,7.13
2023-02-24T05:13:28.664Z,6.90
2023-02-24T05:16:04.256Z,6.10
2023-02-24T05:18:36.955Z,6.90
2023-02-24T05:21:32.343Z,7.07
2023-02-24T05:23:59.892Z,8.98
2023-02-24T05:26:27.492Z,8.32
2023-02-24T05:28:56.567Z,6.90
2023-02-24T05:31:28.002Z,6.07
2023-02-24T05:34:00.159Z,7.00
2023-02-24T05:36:40.409Z,6.72
2023-02-24T05:39:12.505Z,6.97
2023-02-24T05:41:42.515Z,6.35
2023-02-24T05:44:16.122Z,6.60
2023-02-24T05:46:46.082Z,6.75
2023-02-24T05:49:23.257Z,9.40
2023-02-24T05:51:56.053Z,7.25
2023-02-24T05:54:32.778Z,6.88
2023-02-24T05:59:33.104Z,7.55
2023-02-24T06:02:07.734Z,6.82
2023-02-24T06:04:40.872Z,7.90
2023-02-24T06:07:25.525Z,6.18
2023-02-24T06:09:58.591Z,7.45
2023-02-24T06:12:30.358Z,6.03
2023-02-24T06:15:00.830Z,5.40
2023-02-24T06:17:28.501Z,5.97
2023-02-24T06:19:55.410Z,5.75
2023-02-24T06:22:26.139Z,6.35
2023-02-24T06:24:55.089Z,7.18
2023-02-24T06:27:25.064Z,6.95
2023-02-24T06:29:54.852Z,5.82
2023-02-24T06:32:26.092Z,6.47
2023-02-24T06:34:53.988Z,8.60
2023-02-24T06:37:23.118Z,6.65
2023-02-24T06:39:50.848Z,5.07
2023-02-24T06:42:17.901Z,5.25
2023-02-24T06:44:45.253Z,7.03
2023-02-24T06:47:14.728Z,7.50
2023-02-24T06:49:44.616Z,6.45
2023-02-24T06:52:19.298Z,8.32
2023-02-24T06:54:49.096Z,6.07
2023-02-24T06:57:15.992Z,7.53
2023-02-24T06:59:42.935Z,6.60
2023-02-24T07:02:10.888Z,7.03
2023-02-24T07:04:43.872Z,7.00
2023-02-24T07:07:14.298Z,6.60
2023-02-24T07:12:11.168Z,7.53
2023-02-24T07:14:38.420Z,7.18
2023-02-24T07:17:05.825Z,7.10
2023-02-24T07:19:33.697Z,6.25
2023-02-24T07:22:03.572Z,6.57
2023-02-24T07:24:37.200Z,7.60
2023-02-24T07:27:21.989Z,6.88
2023-02-24T07:29:52.920Z,7.22
2023-02-24T07:32:22.391Z,6.97
2023-02-24T07:34:49.441Z,7.47
2023-02-24T07:37:16.735Z,7.72
2023-02-24T07:39:43.847Z,7.57
2023-02-24T07:42:15.006Z,7.22
2023-02-24T07:44:46.690Z,7.32
2023-02-24T07:47:16.029Z,6.93
2023-02-24T07:49:45.197Z,6.55
2023-02-24T07:52:12.153Z,6.97
2023-02-24T07:54:39.381Z,6.90
2023-02-24T07:57:13.485Z,6.63
2023-02-24T07:59:47.190Z,7.13
2023-02-24T08:02:15.877Z,6.28
2023-02-24T08:04:49.813Z,6.53
2023-02-24T08:07:25.168Z,7.72
2023-02-24T08:10:11.979Z,7.80
2023-02-24T08:12:44.439Z,7.28
2023-02-24T08:15:23.764Z,7.00
2023-02-24T08:17:55.493Z,6.25
2023-02-24T08:20:25.215Z,7.63
2023-02-24T08:22:55.072Z,8.60
2023-02-24T08:25:35.804Z,7.38
2023-02-24T08:28:09.379Z,7.85
2023-02-24T08:30:45.939Z,11.38
2023-02-24T08:33:21.311Z,7.28
2023-02-24T08:35:58.089Z,8.02
2023-02-24T08:38:27.563Z,8.05
2023-02-24T08:40:57.206Z,8.73
2023-02-24T08:43:38.537Z,7.38
2023-02-24T08:46:13.214Z,7.32
2023-02-24T08:48:48.111Z,6.82
2023-02-24T08:51:34.443Z,6.95
2023-02-24T08:54:15.369Z,9.25
2023-02-24T08:56:49.087Z,8.13
2023-02-24T08:59:38.619Z,8.10
2023-02-24T09:02:23.217Z,8.27
2023-02-24T09:05:04.975Z,10.98
2023-02-24T09:07:38.100Z,7.90
2023-02-24T09:10:18.521Z,9.43
2023-02-24T09:12:47.294Z,6.75
2023-02-24T09:15:15.561Z,8.32
2023-02-24T09:17:45.864Z,9.20
2023-02-24T09:20:27.463Z,7.28
2023-02-24T09:23:09.652Z,7.82
2023-02-24T09:25:43.973Z,8.35
2023-02-24T09:28:24.742Z,8.95
2023-02-24T09:30:57.010Z,7.68
2023-02-24T09:33:41.879Z,9.55
2023-02-24T09:36:20.598Z,7.30
2023-02-24T09:39:03.185Z,8.15
2023-02-24T09:42:03.940Z,8.20
2023-02-24T09:44:41.553Z,7.47
2023-02-24T09:47:54.875Z,8.20
2023-02-24T09:50:47.319Z,7.78
2023-02-24T09:53:17.573Z,8.27
2023-02-24T09:56:14.215Z,7.90
2023-02-24T09:58:47.892Z,6.82
2023-02-24T10:01:43.289Z,9.00
2023-02-24T10:04:36.141Z,8.80
2023-02-24T10:07:18.565Z,6.57
2023-02-24T10:10:30.778Z,7.60
2023-02-24T10:13:33.721Z,7.50
2023-02-24T10:16:08.077Z,7.78
2023-02-24T10:18:43.588Z,8.10
2023-02-24T10:21:30.605Z,7.40
2023-02-24T10:24:08.097Z,7.60
2023-02-24T10:26:59.506Z,8.00
2023-02-24T10:30:01.401Z,7.85
2023-02-24T10:32:43.332Z,9.10
2023-02-24T10:35:17.135Z,7.50
2023-02-24T10:37:44.725Z,7.25
2023-02-24T10:40:17.626Z,8.02
2023-02-24T10:42:47.958Z,8.18
2023-02-24T10:45:25.659Z,9.80
2023-02-24T10:47:58.716Z,13.75
2023-02-24T10:50:54.972Z,9.95
2023-02-24T10:56:32.944Z,9.02
2023-02-24T10:59:39.118Z,7.88
2023-02-24T11:02:29.994Z,9.98
2023-02-24T11:05:03.268Z,8.30
2023-02-24T11:07:43.869Z,10.75
2023-02-24T11:10:39.114Z,8.55
2023-02-24T11:13:25.056Z,8.27
2023-02-24T11:16:13.617Z,7.30
2023-02-24T11:18:50.048Z,10.00
2023-02-24T11:21:17.899Z,7.22
2023-02-24T11:23:56.882Z,7.85
2023-02-24T11:26:36.577Z,7.95
2023-02-24T11:29:21.484Z,8.15
2023-02-24T11:32:42.858Z,8.10
2023-02-24T11:35:20.406Z,8.90
2023-02-24T11:37:55.953Z,8.80
2023-02-24T11:40:27.249Z,8.20
2023-02-24T11:43:03.228Z,8.82
2023-02-24T11:45:38.179Z,9.55
2023-02-24T11:48:20.406Z,7.95
2023-02-24T11:51:01.647Z,7.47
2023-02-24T11:53:55.205Z,8.55
2023-02-24T11:56:29.419Z,9.68
2023-02-24T11:59:21.297Z,12.57
2023-02-24T12:02:03.808Z,16.00
2023-02-24T12:04:40.841Z,18.20
2023-02-24T12:10:29.650Z,8.98
2023-02-24T12:13:11.241Z,9.93
2023-02-24T12:15:55.678Z,9.40
2023-02-24T12:18:32.221Z,10.65
2023-02-24T12:21:34.540Z,7.80
2023-02-24T12:24:08.516Z,8.95
2023-02-24T12:26:59.411Z,7.18
2023-02-24T12:30:07.102Z,8.02
2023-02-24T12:32:59.758Z,8.98
2023-02-24T12:35:54.066Z,8.20
2023-02-24T12:38:43.360Z,7.70
2023-02-24T12:41:32.417Z,8.60
2023-02-24T12:44:27.531Z,7.78
2023-02-24T12:47:13.313Z,8.57
2023-02-24T12:50:12.803Z,7.63
2023-02-24T12:53:06.380Z,8.02
2023-02-24T12:55:44.557Z,8.73
2023-02-24T12:58:19.555Z,8.52
2023-02-24T13:01:21.591Z,7.88
2023-02-24T13:04:03.658Z,8.43
2023-02-24T13:06:58.179Z,7.88
2023-02-24T13:09:52.308Z,13.68
2023-02-24T13:12:45.666Z,11.07
2023-02-24T13:15:25.340Z,9.60
2023-02-24T13:17:57.691Z,9.48
2023-02-24T13:20:36.751Z,9.07
2023-02-24T13:23:19.949Z,9.82
2023-02-24T13:25:53.915Z,8.38
2023-02-24T13:28:41.132Z,8.45
2023-02-24T13:31:13.571Z,9.85
2023-02-24T13:33:45.006Z,9.40
2023-02-24T13:36:23.264Z,11.20
2023-02-24T13:38:52.170Z,9.48
2023-02-24T13:41:28.017Z,9.93
2023-02-24T13:43:58.373Z,11.57
2023-02-24T13:52:55.781Z,8.75
2023-02-24T13:55:59.409Z,9.07
2023-02-24T13:59:05.094Z,10.30
2023-02-24T14:01:46.063Z,11.02
2023-02-24T14:04:44.291Z,8.88
2023-02-24T14:07:19.532Z,13.05
2023-02-24T14:09:53.517Z,9.57
2023-02-24T14:12:25.488Z,10.80
2023-02-24T14:14:53.596Z,10.05
2023-02-24T14:17:28.896Z,9.57
2023-02-24T14:20:07.899Z,11.48
2023-02-24T14:22:49.309Z,10.80
2023-02-24T14:25:18.205Z,10.52
2023-02-24T14:27:49.101Z,9.88
2023-02-24T14:30:26.849Z,9.35
2023-02-24T14:32:54.880Z,12.18
2023-02-24T14:35:31.809Z,10.80
2023-02-24T14:40:29.238Z,10.82
2023-02-24T14:42:57.605Z,10.38
2023-02-24T14:45:28.578Z,10.52
2023-02-24T14:47:56.738Z,11.20
2023-02-24T14:50:34.548Z,11.93
2023-02-24T14:53:09.876Z,10.70
2023-02-24T14:55:40.277Z,10.13
2023-02-24T14:58:16.111Z,11.38
2023-02-24T15:01:34.436Z,10.32
2023-02-24T15:04:34.218Z,10.73
2023-02-24T15:07:05.349Z,11.50
2023-02-24T15:09:43.391Z,10.85
2023-02-24T15:12:36.629Z,11.20
2023-02-24T15:15:18.124Z,10.90
2023-02-24T15:17:45.229Z,11.13
2023-02-24T15:20:32.387Z,15.77
2023-02-24T15:23:00.442Z,9.88
2023-02-24T15:25:51.051Z,11.27
2023-02-24T15:28:30.842Z,12.43
2023-02-24T15:31:11.459Z,13.52
2023-02-24T15:33:45.713Z,11.98
2023-02-24T15:36:23.732Z,10.02
2023-02-24T15:39:10.532Z,11.65
2023-02-24T15:41:47.189Z,13.85
2023-02-24T15:44:32.996Z,10.30
2023-02-24T15:47:19.116Z,12.65
2023-02-24T15:49:46.086Z,11.55
2023-02-24T15:52:13.203Z,11.43
2023-02-24T15:54:42.477Z,11.80
2023-02-24T15:57:16.888Z,15.57
2023-02-24T15:59:44.774Z,17.13
2023-02-24T16:02:17.231Z,16.55
2023-02-24T16:04:44.210Z,15.35
2023-02-24T16:07:34.035Z,13.93
2023-02-24T16:10:02.149Z,11.90
2023-02-24T16:12:35.180Z,12.90
2023-02-24T16:15:05.921Z,11.02
2023-02-24T16:17:39.903Z,9.52
2023-02-24T16:20:13.742Z,11.00
2023-02-24T16:22:40.764Z,11.70
2023-02-24T16:25:08.129Z,10.35
2023-02-24T16:27:36.296Z,10.10
2023-02-24T16:30:03.966Z,10.93
2023-02-24T16:32:31.004Z,11.50
2023-02-24T16:34:58.009Z,8.43
2023-02-24T16:37:29.249Z,9.35
2023-02-24T16:39:56.399Z,8.05
2023-02-24T16:42:31.094Z,8.20
2023-02-24T16:44:58.040Z,8.55
2023-02-24T16:47:25.808Z,7.35
2023-02-24T16:49:57.559Z,8.20
2023-02-24T16:52:24.961Z,6.78
2023-02-24T16:54:52.113Z,8.00
2023-02-24T16:57:19.060Z,9.85
2023-02-24T16:59:46.429Z,9.80
2023-02-24T17:02:22.241Z,8.63
2023-02-24T17:04:49.362Z,7.55
2023-02-24T17:07:17.598Z,7.32
2023-02-24T17:09:44.538Z,7.40
2023-02-24T17:12:13.824Z,7.95
2023-02-24T17:14:40.824Z,10.70
2023-02-24T17:17:07.785Z,9.00
2023-02-24T17:19:35.091Z,11.50
2023-02-24T17:22:01.967Z,12.38
2023-02-24T17:24:29.869Z,9.60
2023-02-24T17:27:01.061Z,12.60
2023-02-24T17:29:28.235Z,11.27
2023-02-24T17:31:55.344Z,11.45
2023-02-24T17:34:23.966Z,9.82
2023-02-24T17:36:50.921Z,7.97
2023-02-24T17:39:17.889Z,7.57
2023-02-24T17:41:45.208Z,7.68
2023-02-24T17:44:12.133Z,6.80
2023-02-24T17:46:39.191Z,8.43
2023-02-24T17:49:06.364Z,7.25
2023-02-24T17:51:33.360Z,6.60
2023-02-24T17:54:00.352Z,7.97
2023-02-24T17:56:27.684Z,7.82
2023-02-24T17:58:58.677Z,7.20
2023-02-24T18:01:27.170Z,9.43
2023-02-24T18:03:57.330Z,7.88
2023-02-24T18:06:25.200Z,7.57
2023-02-24T18:08:52.167Z,7.30
2023-02-24T18:11:20.171Z,7.30
2023-02-24T18:13:50.783Z,7.75
2023-02-24T18:16:17.945Z,7.38
2023-02-24T18:18:45.071Z,8.52
2023-02-24T18:21:12.043Z,9.30
2023-02-24T18:23:40.224Z,11.50
2023-02-24T18:26:10.312Z,10.02
2023-02-24T18:28:37.895Z,10.40
2023-02-24T18:31:13.195Z,8.02
2023-02-24T18:33:40.408Z,9.65
2023-02-24T18:36:08.249Z,9.77
2023-02-24T18:38:35.957Z,11.23
2023-02-24T18:41:07.213Z,8.63
2023-02-24T18:43:35.508Z,9.45
2023-02-24T18:46:05.817Z,8.50
2023-02-24T18:51:01.470Z,7.70
2023-02-24T18:53:31.768Z,7.53
2023-02-24T18:56:05.562Z,8.32
2023-02-24T18:58:32.659Z,8.40
2023-02-24T19:00:59.960Z,9.25
2023-02-24T19:03:27.554Z,9.00
2023-02-24T19:05:54.443Z,9.45
2023-02-24T19:08:21.349Z,10.95
2023-02-24T19:10:48.269Z,9.90
2023-02-24T19:13:15.199Z,9.57
2023-02-24T19:15:44.701Z,8.68
2023-02-24T19:18:11.880Z,8.25
2023-02-24T19:20:45.208Z,7.30
2023-02-24T19:23:12.103Z,7.15
2023-02-24T19:25:39.881Z,8.70
2023-02-24T19:28:07.673Z,6.93
2023-02-24T19:30:34.564Z,7.53
2023-02-24T19:33:01.606Z,7.68
2023-02-24T19:35:29.660Z,8.48
2023-02-24T19:37:56.551Z,7.50
2023-02-24T19:40:23.690Z,7.45
2023-02-24T19:42:51.789Z,8.23
2023-02-24T19:45:19.404Z,8.85
2023-02-24T19:47:46.952Z,7.85
2023-02-24T19:50:15.997Z,7.45
2023-02-24T19:52:43.198Z,7.85
2023-02-24T19:55:12.244Z,7.63
2023-02-24T19:57:39.413Z,9.45
2023-02-24T20:00:11.578Z,9.38
2023-02-24T20:02:41.404Z,8.30
2023-02-24T20:05:10.311Z,8.68
2023-02-24T20:07:37.712Z,10.63
2023-02-24T20:10:05.468Z,9.10
2023-02-24T20:12:32.400Z,8.85
2023-02-24T20:14:59.282Z,7.40
2023-02-24T20:17:26.838Z,8.38
2023-02-24T20:19:53.766Z,7.97
2023-02-24T20:22:21.741Z,8.38
2023-02-24T20:24:48.819Z,8.82
2023-02-24T20:27:15.685Z,8.38
2023-02-24T20:29:42.669Z,9.15
2023-02-24T20:32:10.038Z,8.52
2023-02-24T20:34:38.215Z,8.73
2023-02-24T20:37:06.508Z,9.95
2023-02-24T20:39:34.731Z,8.40
2023-02-24T20:42:01.618Z,8.82
2023-02-24T20:44:28.793Z,9.30
2023-02-24T20:46:55.682Z,10.45
2023-02-24T20:49:22.608Z,8.88
2023-02-24T20:51:49.598Z,9.55
2023-02-24T20:54:16.847Z,8.38
2023-02-24T20:56:45.487Z,9.07
2023-02-24T20:59:23.891Z,8.50
2023-02-24T21:01:51.682Z,10.25
2023-02-24T21:04:21.123Z,9.95
2023-02-24T21:06:48.649Z,7.05
2023-02-24T21:09:16.545Z,8.75
2023-02-24T21:11:43.479Z,9.18
2023-02-24T21:14:17.378Z,8.15
2023-02-24T21:16:45.946Z,8.43
2023-02-24T21:19:13.085Z,9.25
2023-02-24T21:21:40.047Z,9.50
2023-02-24T21:24:07.554Z,8.73
2023-02-24T21:26:34.449Z,8.60
2023-02-24T21:29:01.399Z,9.88
2023-02-24T21:31:28.721Z,9.05
2023-02-24T21:33:56.594Z,8.60
2023-02-24T21:36:25.936Z,8.40
2023-02-24T21:38:54.321Z,8.52
2023-02-24T21:41:21.804Z,7.63
2023-02-24T21:44:00.509Z,6.90
2023-02-24T21:46:28.601Z,9.10
2023-02-24T21:49:00.315Z,7.45
2023-02-24T21:51:28.308Z,7.45
2023-02-24T21:53:56.771Z,7.07
2023-02-24T21:56:27.945Z,7.18
2023-02-24T21:59:02.837Z,7.90
2023-02-24T22:01:36.484Z,7.43
2023-02-24T22:04:09.360Z,7.22
2023-02-24T22:06:38.209Z,7.15
2023-02-24T22:09:08.606Z,7.47
2023-02-24T22:14:09.044Z,7.82
2023-02-24T22:16:35.982Z,7.10
2023-02-24T22:19:03.848Z,8.00
2023-02-24T22:21:31.269Z,8.90
2023-02-24T22:24:02.494Z,8.90
2023-02-24T22:26:31.901Z,6.65
2023-02-24T22:29:00.605Z,8.00
2023-02-24T22:31:31.719Z,7.03
2023-02-24T22:33:59.313Z,7.13
2023-02-24T22:36:30.960Z,7.82
2023-02-24T22:39:00.547Z,6.78
2023-02-24T22:41:31.629Z,7.32
2023-02-24T22:43:59.633Z,6.85
2023-02-24T22:46:33.983Z,8.00
2023-02-24T22:49:01.327Z,10.25
2023-02-24T22:51:28.663Z,7.85
2023-02-24T22:53:56.232Z,7.05
2023-02-24T22:56:26.688Z,6.45
2023-02-24T22:58:53.996Z,7.25
2023-02-24T23:01:30.517Z,6.65
2023-02-24T23:04:01.455Z,7.10
2023-02-24T23:06:29.348Z,7.35
2023-02-24T23:08:58.664Z,6.82
2023-02-24T23:11:36.549Z,7.60
2023-02-24T23:14:06.829Z,8.32
2023-02-24T23:16:35.773Z,7.82
2023-02-24T23:19:12.866Z,7.30
2023-02-24T23:21:45.104Z,8.40
2023-02-24T23:24:14.404Z,7.70
2023-02-24T23:26:46.185Z,7.68
2023-02-24T23:29:17.173Z,8.82
2023-02-24T23:31:45.641Z,6.90
2023-02-24T23:34:13.111Z,10.15
2023-02-24T23:36:43.859Z,8.32
2023-02-24T23:39:14.285Z,7.65
2023-02-24T23:44:09.336Z,8.98
2023-02-24T23:46:37.181Z,7.70
2023-02-24T23:49:06.212Z,8.15
2023-02-24T23:51:50.146Z,9.00
2023-02-24T23:54:18.633Z,8.38
2023-02-24T23:56:46.363Z,7.47
2023-02-24T23:59:13.429Z,7.22
